.
WxDataArchive / Data Records for 2011-06-13
2011-06-12 June 2011 2011-06-14

Data Records for Monday, 13 June 2011

Time	Temp	Chill	HIndex	Humid	Dewpt	 Wind 	HiWind	WindDir	Rain 	Barom 
-----	----	-----	------	-----	-----	------	------	-------	-----	----- 
00:00	56.9	56.9	56.9	77	49.8	0	0	---	0.00	30.067 
00:05	56.7	56.7	56.7	77	49.6	0	0	---	0.00	30.067 
00:10	56.6	56.6	56.6	78	49.8	0	0	---	0.00	30.067 
00:15	56.5	56.5	56.5	78	49.7	0	0	---	0.00	30.078 
00:20	56.3	56.3	56.3	78	49.5	0	0	---	0.00	30.078 
00:25	56.3	56.3	56.3	79	49.9	0	0	---	0.00	30.078 
00:30	56.2	56.2	56.2	79	49.8	0	0	---	0.00	30.078 
00:35	56.0	56.0	56.0	80	49.9	0	0	---	0.00	30.078 
00:40	55.9	55.9	55.9	81	50.2	0	0	---	0.00	30.078 
00:45	55.7	55.7	55.7	81	50.0	0	0	---	0.00	30.079 
00:50	55.6	55.6	55.6	81	49.9	0	0	---	0.00	30.079 
00:55	55.4	55.4	55.4	82	50.0	0	0	---	0.00	30.079 
01:00	55.4	55.4	55.4	83	50.3	0	0	---	0.00	30.084 
01:05	55.4	55.4	55.4	83	50.3	0	0	---	0.00	30.084 
01:10	55.4	55.4	55.4	83	50.3	0	0	---	0.00	30.084 
01:15	55.4	55.4	55.4	84	50.6	0	0	---	0.00	30.081 
01:20	55.4	55.4	55.4	84	50.6	0	0	---	0.00	30.081 
01:25	55.4	55.4	55.4	85	51.0	0	0	---	0.00	30.081 
01:30	55.4	55.4	55.4	85	51.0	0	0	---	0.00	30.079 
01:35	55.4	55.4	55.4	85	51.0	0	0	---	0.00	30.079 
01:40	55.4	55.4	55.4	85	51.0	0	0	---	0.00	30.079 
01:45	55.6	55.6	55.6	85	51.2	0	0	---	0.00	30.078 
01:50	55.7	55.7	55.7	85	51.3	0	0	---	0.00	30.078 
01:55	55.7	55.7	55.7	85	51.3	0	0	---	0.00	30.078 
02:00	55.9	55.9	55.9	85	51.5	0	0	---	0.00	30.075 
02:05	55.9	55.9	55.9	85	51.5	0	0	---	0.00	30.075 
02:10	55.9	55.9	55.9	85	51.5	0	0	---	0.00	30.075 
02:15	55.9	55.9	55.9	85	51.5	0	0	---	0.00	30.070 
02:20	55.9	55.9	55.9	85	51.5	0	0	---	0.00	30.070 
02:25	55.9	55.9	55.9	84	51.1	0	0	---	0.00	30.070 
02:30	56.0	56.0	56.0	84	51.2	0	0	---	0.00	30.067 
02:35	56.2	56.2	56.2	84	51.4	0	0	---	0.00	30.067 
02:40	56.3	56.3	56.3	83	51.2	0	0	---	0.00	30.067 
02:45	56.5	56.5	56.5	82	51.1	0	1	112	0.00	30.073 
02:50	56.6	56.6	56.6	82	51.2	0	0	---	0.00	30.073 
02:55	56.7	56.7	56.7	81	50.9	0	1	112	0.00	30.073 
03:00	56.7	56.7	56.7	81	50.9	0	0	---	0.00	30.072 
03:05	56.7	56.7	56.7	82	51.3	0	0	---	0.00	30.072 
03:10	56.7	56.7	56.7	82	51.3	0	0	---	0.00	30.072 
03:15	56.7	56.7	56.7	82	51.3	0	0	---	0.00	30.062 
03:20	56.7	56.7	56.7	82	51.3	0	0	---	0.00	30.062 
03:25	56.7	56.7	56.7	83	51.6	0	0	---	0.00	30.062 
03:30	56.7	56.7	56.7	83	51.6	0	0	---	0.00	30.059 
03:35	56.7	56.7	56.7	83	51.6	0	0	---	0.00	30.059 
03:40	56.7	56.7	56.7	83	51.6	0	0	---	0.00	30.059 
03:45	56.7	56.7	56.7	83	51.6	0	0	---	0.00	30.051 
03:50	56.9	56.9	56.9	83	51.8	0	0	---	0.00	30.051 
03:55	56.9	56.9	56.9	83	51.8	0	0	---	0.00	30.051 
04:00	56.9	56.9	56.9	83	51.8	0	0	---	0.00	30.050 
04:05	56.9	56.9	56.9	83	51.8	0	1	112	0.00	30.050 
04:10	56.9	56.9	56.9	83	51.8	0	0	---	0.00	30.050 
04:15	56.9	56.9	56.9	83	51.8	0	0	---	0.00	30.048 
04:20	56.9	56.9	56.9	83	51.8	0	0	---	0.00	30.048 
04:25	56.9	56.9	56.9	83	51.8	0	0	---	0.00	30.048 
04:30	56.9	56.9	56.9	83	51.8	0	0	---	0.00	30.049 
04:35	56.9	56.9	56.9	83	51.8	0	0	---	0.00	30.049 
04:40	56.9	56.9	56.9	83	51.8	0	0	---	0.00	30.049 
04:45	56.9	56.9	56.9	83	51.8	0	0	---	0.00	30.050 
04:50	56.9	56.9	56.9	83	51.8	0	1	112	0.00	30.050 
04:55	56.9	56.9	56.9	83	51.8	0	0	---	0.00	30.050 
05:00	56.7	56.7	56.7	83	51.6	0	0	---	0.00	30.041 
05:05	56.7	56.7	56.7	83	51.6	0	0	---	0.00	30.041 
05:10	56.6	56.6	56.6	83	51.5	0	0	---	0.00	30.041 
05:15	56.6	56.6	56.6	84	51.8	0	0	---	0.00	30.045 
05:20	56.5	56.5	56.5	84	51.7	0	0	---	0.00	30.045 
05:25	56.5	56.5	56.5	84	51.7	0	0	---	0.00	30.045 
05:30	56.5	56.5	56.5	84	51.7	0	0	---	0.00	30.045 
05:35	56.3	56.3	56.3	84	51.5	0	0	---	0.00	30.045 
05:40	56.3	56.3	56.3	84	51.5	0	0	---	0.00	30.045 
05:45	56.3	56.3	56.3	85	51.8	0	0	---	0.00	30.050 
05:50	56.3	56.3	56.3	85	51.8	0	0	---	0.00	30.050 
05:55	56.3	56.3	56.3	85	51.8	0	0	---	0.00	30.050 
06:00	56.3	56.3	56.3	85	51.8	0	0	---	0.00	30.059 
06:05	56.5	56.5	56.5	86	52.4	0	0	---	0.00	30.059 
06:10	56.5	56.5	56.5	86	52.4	0	0	---	0.00	30.059 
06:15	56.5	56.5	56.5	86	52.4	0	0	---	0.00	30.068 
06:20	56.6	56.6	56.6	86	52.5	0	0	---	0.00	30.068 
06:25	56.6	56.6	56.6	86	52.5	0	0	---	0.00	30.068 
06:30	56.6	56.6	56.6	85	52.1	0	0	---	0.00	30.081 
06:35	56.7	56.7	56.7	85	52.2	0	0	---	0.00	30.081 
06:40	56.7	56.7	56.7	86	52.6	0	0	---	0.00	30.081 
06:45	56.9	56.9	56.9	85	52.4	0	0	---	0.00	30.088 
06:50	56.9	56.9	56.9	85	52.4	0	0	---	0.00	30.088 
06:55	57.0	57.0	57.0	85	52.5	0	0	---	0.00	30.088 
07:00	57.0	57.0	57.0	85	52.5	0	0	---	0.00	30.094 
07:05	57.0	57.0	57.0	85	52.5	0	0	---	0.00	30.094 
07:10	57.2	57.2	57.2	85	52.7	0	1	248	0.00	30.094 
07:15	57.3	57.3	57.3	84	52.5	0	0	---	0.00	30.098 
07:20	57.5	57.5	57.5	84	52.7	0	0	---	0.00	30.098 
07:25	57.6	57.6	57.6	84	52.8	0	0	---	0.00	30.098 
07:30	57.6	57.6	57.6	84	52.8	0	0	---	0.00	30.109 
07:35	57.8	57.8	57.8	83	52.7	0	0	---	0.00	30.109 
07:40	58.0	58.0	58.0	83	52.9	0	0	---	0.00	30.109 
07:45	58.1	58.1	58.1	83	53.0	0	0	---	0.00	30.111 
07:50	58.1	58.1	58.1	83	53.0	0	1	248	0.00	30.111 
07:55	58.3	58.3	58.3	82	52.8	0	0	---	0.00	30.111 
08:00	58.3	58.3	58.3	82	52.8	0	0	---	0.00	30.112 
08:05	58.4	58.4	58.4	82	52.9	0	0	---	0.00	30.112 
08:10	58.4	58.4	58.4	81	52.6	0	1	248	0.00	30.112 
08:15	58.4	58.4	58.4	81	52.6	0	0	---	0.00	30.116 
08:20	58.6	58.6	58.6	81	52.8	0	0	---	0.00	30.116 
08:25	58.7	58.7	58.7	81	52.9	0	0	---	0.00	30.116 
08:30	58.9	58.9	58.9	81	53.1	0	1	248	0.00	30.120 
08:35	59.2	59.2	59.2	80	53.0	0	1	248	0.00	30.120 
08:40	59.3	59.3	59.3	79	52.8	0	3	248	0.00	30.120 
08:45	59.8	59.8	59.8	79	53.3	0	0	---	0.00	30.122 
08:50	60.2	60.2	60.2	79	53.7	0	1	248	0.00	30.122 
08:55	60.7	60.7	60.7	76	53.1	0	1	248	0.00	30.122 
09:00	61.3	61.3	61.3	75	53.3	0	1	248	0.00	30.120 
09:05	62.3	62.3	62.3	72	53.2	0	1	248	0.00	30.120 
09:10	63.5	63.5	63.5	71	53.9	0	1	248	0.00	30.120 
09:15	64.7	64.7	64.7	66	53.1	0	1	248	0.00	30.121 
09:20	65.2	65.2	65.2	67	54.0	0	2	248	0.00	30.121 
09:25	66.0	66.0	66.0	64	53.5	0	2	248	0.00	30.121 
09:30	66.4	66.4	66.4	63	53.4	0	2	248	0.00	30.124 
09:35	66.6	66.6	66.6	60	52.3	0	2	248	0.00	30.124 
09:40	67.1	67.1	67.1	60	52.7	1	3	248	0.00	30.124 
09:45	67.8	67.8	67.8	60	53.4	1	3	112	0.00	30.119 
09:50	68.3	68.3	68.3	58	52.9	1	4	112	0.00	30.119 
09:55	68.6	68.6	68.6	59	53.7	1	4	112	0.00	30.119 
10:00	68.9	68.9	68.9	56	52.5	0	2	112	0.00	30.119 
10:05	68.9	68.9	68.9	54	51.6	2	5	112	0.00	30.119 
10:10	68.9	68.9	68.9	56	52.5	1	5	45	0.00	30.119 
10:15	69.3	69.3	69.3	54	51.9	1	5	45	0.00	30.113 
10:20	69.3	69.3	69.3	53	51.4	2	6	90	0.00	30.113 
10:25	69.3	69.3	69.3	56	52.9	2	5	90	0.00	30.113 
10:30	69.6	69.6	69.6	53	51.7	1	4	90	0.00	30.111 
10:35	70.3	70.3	70.3	55	53.4	1	4	90	0.00	30.111 
10:40	70.3	70.3	70.3	50	50.8	2	5	112	0.00	30.111 
10:45	70.1	70.1	70.1	54	52.7	1	3	112	0.00	30.107 
10:50	70.1	70.1	70.1	48	49.5	0	3	112	0.00	30.107 
10:55	70.3	70.3	70.3	50	50.8	0	1	112	0.00	30.107 
11:00	70.3	70.3	70.3	49	50.2	0	2	112	0.00	30.107 
11:05	70.1	70.1	70.1	49	50.0	0	1	112	0.00	30.107 
11:10	69.1	69.1	69.1	47	48.0	0	2	112	0.00	30.107 
11:15	68.1	68.1	68.1	50	48.7	0	3	112	0.00	30.110 
11:20	67.4	67.4	67.4	52	49.2	0	2	112	0.00	30.110 
11:25	67.1	67.1	67.1	52	48.9	0	1	112	0.00	30.110 
11:30	67.8	67.8	67.8	54	50.5	0	2	112	0.00	30.111 
11:35	68.4	68.4	68.4	52	50.1	1	3	112	0.00	30.111 
11:40	68.3	68.3	68.3	50	48.9	0	2	112	0.00	30.111 
11:45	68.3	68.3	68.3	52	50.0	0	1	112	0.00	30.111 
11:50	67.9	67.9	67.9	51	49.1	0	1	112	0.00	30.111 
11:55	68.1	68.1	68.1	51	49.3	1	4	112	0.00	30.111 
12:00	68.6	68.6	68.6	51	49.7	1	3	135	0.00	30.110 
12:05	69.6	69.6	69.6	50	50.1	3	5	112	0.00	30.110 
12:10	70.6	70.6	70.6	44	47.6	2	6	112	0.00	30.110 
12:15	71.6	71.6	71.6	48	50.9	1	3	112	0.00	30.110 
12:20	72.5	72.5	72.5	48	51.7	1	6	112	0.00	30.110 
12:25	71.6	71.6	71.6	44	48.5	1	5	292	0.00	30.110 
12:30	71.1	71.1	71.1	45	48.7	1	3	292	0.00	30.106 
12:35	71.3	71.3	71.3	46	49.4	0	2	292	0.00	30.106 
12:40	72.0	72.0	72.0	46	50.1	1	3	292	0.00	30.106 
12:45	72.3	72.3	72.3	43	48.5	0	3	292	0.00	30.103 
12:50	71.5	71.5	71.5	42	47.2	0	2	292	0.00	30.103 
12:55	70.8	70.8	70.8	43	47.2	0	1	292	0.00	30.103 
13:00	70.9	70.9	70.9	46	49.1	1	3	292	0.00	30.106 
13:05	71.8	71.8	71.8	48	51.0	0	3	292	0.00	30.106 
13:10	72.5	72.5	72.5	43	48.7	0	2	68	0.00	30.106 
13:15	72.1	72.1	72.1	44	49.0	1	5	270	0.00	30.110 
13:20	72.1	72.1	72.1	45	49.6	0	2	270	0.00	30.110 
13:25	72.5	72.5	72.5	43	48.7	0	1	270	0.00	30.110 
13:30	73.0	73.0	73.0	43	49.2	0	2	270	0.00	30.104 
13:35	73.5	73.5	73.5	40	47.7	0	3	270	0.00	30.104 
13:40	73.5	73.5	73.5	41	48.3	1	5	292	0.00	30.104 
13:45	73.5	73.5	73.5	42	49.0	1	3	90	0.00	30.096 
13:50	73.2	73.2	73.2	43	49.3	1	3	270	0.00	30.096 
13:55	72.5	72.5	72.5	44	49.3	0	2	248	0.00	30.096 
14:00	72.1	72.1	72.1	44	49.0	1	3	248	0.00	30.099 
14:05	73.0	73.0	73.0	44	49.8	0	3	292	0.00	30.099 
14:10	73.7	73.7	73.7	46	51.6	0	2	202	0.00	30.099 
14:15	73.9	73.9	73.9	41	48.7	1	5	270	0.00	30.091 
14:20	73.9	73.9	73.9	40	48.0	1	3	270	0.00	30.091 
14:25	74.2	74.2	74.2	42	49.6	1	2	315	0.00	30.091 
14:30	74.4	74.4	74.4	43	50.4	0	3	90	0.00	30.084 
14:35	74.6	74.6	74.6	43	50.6	1	3	90	0.00	30.084 
14:40	74.7	74.7	74.7	40	48.8	1	5	112	0.00	30.084 
14:45	73.7	73.7	73.7	39	47.2	2	5	112	0.00	30.067 
14:50	73.2	73.2	73.2	44	50.0	0	3	112	0.00	30.067 
14:55	73.7	73.7	73.7	43	49.8	1	2	112	0.00	30.067 
15:00	74.0	74.0	74.0	37	46.1	1	3	112	0.00	30.069 
15:05	74.7	74.7	74.7	43	50.7	1	3	112	0.00	30.069 
15:10	75.3	75.3	77.7	43	51.2	1	5	112	0.00	30.069 
15:15	75.1	75.1	77.3	36	46.3	3	5	112	0.00	30.058 
15:20	75.1	75.1	77.3	35	45.6	1	3	90	0.00	30.058 
15:25	74.7	74.7	74.7	39	48.1	1	2	338	0.00	30.058 
15:30	74.6	74.6	74.6	36	45.9	1	3	338	0.00	30.056 
15:35	74.9	74.9	74.9	37	46.9	0	2	338	0.00	30.056 
15:40	75.1	75.1	77.5	39	48.4	0	1	338	0.00	30.056 
15:45	75.3	75.3	77.5	39	48.6	1	3	180	0.00	30.052 
15:50	75.8	75.8	77.7	38	48.4	0	2	112	0.00	30.052 
15:55	75.8	75.8	77.5	35	46.2	1	3	112	0.00	30.052 
16:00	75.8	75.8	77.5	35	46.2	1	4	270	0.00	30.047 
16:05	75.8	75.8	77.5	35	46.2	1	3	292	0.00	30.047 
16:10	76.0	76.0	77.9	42	51.2	1	4	292	0.00	30.047 
16:15	76.3	76.3	77.8	38	48.8	1	4	112	0.00	30.048 
16:20	75.8	75.8	77.6	36	46.9	1	3	270	0.00	30.048 
16:25	75.8	75.8	77.5	35	46.2	1	3	270	0.00	30.048 
16:30	76.0	76.0	77.7	37	47.8	0	2	270	0.00	30.046 
16:35	76.1	76.1	77.8	38	48.6	1	3	270	0.00	30.046 
16:40	76.1	76.1	77.6	35	46.4	1	3	315	0.00	30.046 
16:45	76.0	76.0	77.5	34	45.6	1	3	270	0.00	30.031 
16:50	76.0	76.0	77.6	35	46.4	0	1	270	0.00	30.031 
16:55	76.0	76.0	77.6	35	46.4	0	1	270	0.00	30.031 
17:00	76.3	76.3	77.7	35	46.6	1	3	68	0.00	30.032 
17:05	76.5	76.5	77.7	34	46.0	0	1	68	0.00	30.032 
17:10	76.3	76.3	77.6	33	45.1	0	3	68	0.00	30.032 
17:15	76.7	76.7	77.9	35	47.0	0	1	68	0.00	30.027 
17:20	76.7	76.7	77.8	34	46.2	0	2	0	0.00	30.027 
17:25	76.7	76.7	77.5	29	42.0	0	3	112	0.00	30.027 
17:30	76.8	76.8	77.8	33	45.5	0	2	112	0.00	30.037 
17:35	77.0	77.0	77.7	31	44.0	1	2	315	0.00	30.037 
17:40	77.4	77.4	78.1	35	47.6	1	3	315	0.00	30.037 
17:45	77.9	77.9	78.3	34	47.2	0	2	315	0.00	30.055 
17:50	77.2	77.2	77.7	29	42.5	1	4	112	0.00	30.055 
17:55	76.3	76.3	77.7	35	46.6	0	2	270	0.00	30.055 
18:00	75.4	75.4	77.3	33	44.3	0	1	270	0.00	30.053 
18:05	74.9	74.9	74.9	32	43.0	0	1	248	0.00	30.053 
18:10	74.6	74.6	74.6	37	46.6	0	0	---	0.00	30.053 
18:15	74.4	74.4	74.4	35	44.9	0	1	248	0.00	30.057 
18:20	74.2	74.2	74.2	35	44.8	0	0	---	0.00	30.057 
18:25	74.4	74.4	74.4	35	44.9	0	2	248	0.00	30.057 
18:30	74.6	74.6	74.6	35	45.1	0	1	248	0.00	30.054 
18:35	74.9	74.9	74.9	36	46.1	0	1	248	0.00	30.054 
18:40	75.3	75.3	77.2	33	44.2	1	2	248	0.00	30.054 
18:45	75.3	75.3	77.2	32	43.4	0	1	248	0.00	30.054 
18:50	74.9	74.9	74.9	35	45.4	0	1	248	0.00	30.054 
18:55	74.4	74.4	74.4	35	44.9	0	1	248	0.00	30.054 
19:00	74.2	74.2	74.2	36	45.5	0	1	248	0.00	30.044 
19:05	74.2	74.2	74.2	35	44.8	0	1	248	0.00	30.044 
19:10	74.0	74.0	74.0	34	43.8	0	2	248	0.00	30.044 
19:15	74.0	74.0	74.0	35	44.6	0	2	248	0.00	30.038 
19:20	74.0	74.0	74.0	35	44.6	0	3	112	0.00	30.038 
19:25	74.0	74.0	74.0	37	46.1	0	1	112	0.00	30.038 
19:30	74.0	74.0	74.0	35	44.6	0	2	112	0.00	30.032 
19:35	74.0	74.0	74.0	36	45.3	0	1	112	0.00	30.032 
19:40	73.9	73.9	73.9	35	44.5	0	1	112	0.00	30.032 
19:45	73.7	73.7	73.7	37	45.8	0	0	---	0.00	30.034 
19:50	73.5	73.5	73.5	37	45.6	0	1	112	0.00	30.034 
19:55	73.3	73.3	73.3	38	46.1	0	0	---	0.00	30.034 
20:00	73.2	73.2	73.2	38	46.1	0	0	---	0.00	30.042 
20:05	73.0	73.0	73.0	39	46.6	0	1	112	0.00	30.042 
20:10	72.8	72.8	72.8	40	47.1	0	0	---	0.00	30.042 
20:15	72.5	72.5	72.5	40	46.8	0	0	---	0.00	30.041 
20:20	72.3	72.3	72.3	41	47.3	0	0	---	0.00	30.041 
20:25	72.0	72.0	72.0	43	48.3	0	0	---	0.00	30.041 
20:30	71.6	71.6	71.6	42	47.3	0	0	---	0.00	30.041 
20:35	71.3	71.3	71.3	43	47.6	0	0	---	0.00	30.041 
20:40	71.1	71.1	71.1	46	49.3	0	0	---	0.00	30.041 
20:45	70.8	70.8	70.8	45	48.4	0	0	---	0.00	30.041 
20:50	70.6	70.6	70.6	44	47.6	0	0	---	0.00	30.041 
20:55	70.3	70.3	70.3	44	47.3	0	0	---	0.00	30.041 
21:00	69.9	69.9	69.9	45	47.6	0	0	---	0.00	30.032 
21:05	69.6	69.6	69.6	46	47.9	0	0	---	0.00	30.032 
21:10	69.1	69.1	69.1	46	47.4	0	0	---	0.00	30.032 
21:15	68.6	68.6	68.6	48	48.1	0	0	---	0.00	30.022 
21:20	68.3	68.3	68.3	50	48.9	0	0	---	0.00	30.022 
21:25	67.8	67.8	67.8	51	49.0	0	0	---	0.00	30.022 
21:30	67.3	67.3	67.3	53	49.6	0	0	---	0.00	30.019 
21:35	66.8	66.8	66.8	55	50.1	0	0	---	0.00	30.019 
21:40	66.4	66.4	66.4	55	49.7	0	0	---	0.00	30.019 
21:45	66.0	66.0	66.0	57	50.3	0	0	---	0.00	30.018 
21:50	65.6	65.6	65.6	58	50.4	0	0	---	0.00	30.018 
21:55	65.2	65.2	65.2	60	51.0	0	0	---	0.00	30.018 
22:00	65.0	65.0	65.0	60	50.8	0	0	---	0.00	30.025 
22:05	64.7	64.7	64.7	61	50.9	0	0	---	0.00	30.025 
22:10	64.5	64.5	64.5	62	51.2	0	0	---	0.00	30.025 
22:15	64.2	64.2	64.2	62	50.9	0	0	---	0.00	30.032 
22:20	64.0	64.0	64.0	63	51.1	0	0	---	0.00	30.032 
22:25	63.9	63.9	63.9	63	51.1	0	0	---	0.00	30.032 
22:30	63.5	63.5	63.5	64	51.1	0	0	---	0.00	30.027 
22:35	63.4	63.4	63.4	64	51.0	0	0	---	0.00	30.027 
22:40	63.2	63.2	63.2	67	52.1	0	0	---	0.00	30.027 
22:45	63.1	63.1	63.1	67	52.0	0	0	---	0.00	30.035 
22:50	62.7	62.7	62.7	66	51.2	0	0	---	0.00	30.035 
22:55	62.6	62.6	62.6	66	51.1	0	0	---	0.00	30.035 
23:00	62.4	62.4	62.4	66	50.9	0	0	---	0.00	30.041 
23:05	62.3	62.3	62.3	67	51.2	0	0	---	0.00	30.041 
23:10	62.1	62.1	62.1	66	50.6	0	0	---	0.00	30.041 
23:15	61.8	61.8	61.8	67	50.7	0	0	---	0.00	30.036 
23:20	61.5	61.5	61.5	68	50.8	0	0	---	0.00	30.036 
23:25	61.2	61.2	61.2	69	50.9	0	0	---	0.00	30.036 
23:30	61.0	61.0	61.0	70	51.1	0	0	---	0.00	30.040 
23:35	60.7	60.7	60.7	71	51.2	0	0	---	0.00	30.040 
23:40	60.5	60.5	60.5	71	51.0	0	0	---	0.00	30.040 
23:45	60.4	60.4	60.4	72	51.3	0	0	---	0.00	30.035 
23:50	60.2	60.2	60.2	71	50.8	0	1	112	0.00	30.035 
23:55	60.2	60.2	60.2	70	50.4	0	0	---	0.00	30.035 

CoCoRaHS
IN-AL-39
A2 Web Hosting
Creative Commons License
GoDaddy
search engine by freefind advanced

loaded 2018-11-20 02:39:10 • last modified 2010-11-18 10:43:29
Privacy PolicyDisclaimer
• wx.awcolley.com is powered by PmWiki v.2002016 •
• all content (unless otherwise noted) © 2018 A W Colley